首页
METAR-TAF:

METAR-TAF

机场 :

凱恩斯國際機場

凱恩斯, 澳大利亚

纬度: 16-53S, 经度: 145-45E, 海拔: 3米

当前天气观测

该预报发布于41分钟前的10:30 UTC
风速13节,风向
温度 21°C
湿度 69%
气压 1019 hPa
能见度10公里或以上
多云层高于7100英尺

METAR: YBCS 271030Z AUTO 17013KT 9999 // BKN071 21/15 Q1019 RMK RF00.0/000.0 FM1030 16012KT 9999 FEW025 BKN070

时间: 21:11 (11:11 UTC)

预报

该预报发布于6小时和17分钟前的04:54 UTC
预报有效从27日的 06点(UTC)到 28日的 06点(UTC)
风速18节,风向东南
能见度10公里或以上
散云层高于3000英尺
从 27日的 0800点(UTC)
风速8节,风向南转南东
能见度10公里或以上
散云层高于2500英尺
多云层高于4000英尺
小阵雨
从 28日的 0100点(UTC)
风速16节,风向东南
能見度: 4000
散云层高于2500英尺
多云层高于4000英尺
多云层高于1800英尺
小阵雨, 小阵雨

TAF: YBCS 270454Z 2706/2806 13018KT 9999 SCT030 FM270800 16008KT 9999 -SHRA SCT025 BKN040 FM280100 13016KT 9999 -SHRA SCT025 BKN040 INTER 2716/2806 4000 -SHRA BKN018

超过4000个机场的气象观测和天气预报(METAR&TAF报告)。

可查询的气象台以黄色和红色小点在地图上表示。

将鼠标移到小点上方,可查看气象台名称。

然后点击查看天气观测和预报。

如需切换地图:点击带黑十字的绿色按钮放大地图;点击带横线的绿色按钮缩小地图;或者点击绿色箭头查看邻近地区的地图。


METAR-TAF: